createdAt,value
2023-02-15T05:43:48.588Z,70.00
2023-02-15T05:44:48.659Z,69.60
2023-02-15T05:45:48.879Z,70.40
2023-02-15T05:46:49.051Z,72.50
2023-02-15T05:47:49.304Z,69.70
2023-02-15T05:48:49.367Z,70.40
2023-02-15T05:49:49.628Z,68.20
2023-02-15T05:50:49.686Z,68.10
2023-02-15T05:51:49.876Z,71.50
2023-02-15T05:52:52.262Z,67.50
2023-02-15T05:53:50.184Z,69.70
2023-02-15T05:54:50.235Z,67.90
2023-02-15T05:55:50.407Z,68.70
2023-02-15T05:56:50.578Z,69.10
2023-02-15T05:57:50.754Z,68.50
2023-02-15T05:58:50.945Z,67.90
2023-02-15T05:59:51.128Z,70.80
2023-02-15T06:00:51.299Z,68.90
2023-02-15T06:01:51.472Z,70.00
2023-02-15T06:02:51.644Z,70.00
2023-02-15T06:03:51.899Z,70.10
2023-02-15T06:04:51.973Z,69.90
2023-02-15T06:05:52.146Z,70.80
2023-02-15T06:06:52.302Z,71.70
2023-02-15T06:07:52.499Z,73.30
2023-02-15T06:08:52.575Z,73.40
2023-02-15T06:09:52.645Z,74.30
2023-02-15T06:10:52.858Z,73.10
2023-02-15T06:11:52.879Z,74.40
2023-02-15T06:12:53.059Z,73.40
2023-02-15T06:13:53.276Z,74.90
2023-02-15T06:14:53.336Z,73.20
2023-02-15T06:15:53.520Z,74.30
2023-02-15T06:16:53.698Z,72.80
2023-02-15T06:17:53.740Z,71.80
2023-02-15T06:18:53.941Z,74.80
2023-02-15T06:19:54.071Z,73.40
2023-02-15T06:20:54.217Z,73.80
2023-02-15T06:21:54.386Z,74.70
2023-02-15T06:22:54.537Z,74.90
2023-02-15T06:23:54.695Z,77.00
2023-02-15T06:24:55.043Z,78.20
2023-02-15T06:25:55.123Z,75.40
2023-02-15T06:26:55.134Z,75.60
2023-02-15T06:27:55.333Z,76.10
2023-02-15T06:28:55.431Z,76.60
2023-02-15T06:29:55.516Z,79.30
2023-02-15T06:30:55.676Z,79.50
2023-02-15T06:31:55.842Z,78.30
2023-02-15T06:32:55.823Z,77.20
2023-02-15T06:33:55.981Z,75.80
2023-02-15T06:34:56.147Z,79.90
2023-02-15T06:35:56.290Z,77.70
2023-02-15T06:36:56.462Z,77.10
2023-02-15T06:37:56.620Z,78.10
2023-02-15T06:38:56.802Z,74.60
2023-02-15T06:39:56.838Z,73.30
2023-02-15T06:40:57.011Z,75.00
2023-02-15T06:41:57.158Z,75.40
2023-02-15T06:42:57.318Z,74.40
2023-02-15T06:43:57.482Z,76.00
2023-02-15T06:44:57.630Z,75.20
2023-02-15T06:45:57.813Z,76.90
2023-02-15T06:46:57.877Z,81.90
2023-02-15T06:47:58.023Z,78.40
2023-02-15T06:48:58.221Z,80.40
2023-02-15T06:49:58.265Z,86.10
2023-02-15T06:50:58.427Z,83.40
2023-02-15T06:51:58.574Z,80.20
2023-02-15T06:52:58.793Z,81.60
2023-02-15T06:53:58.917Z,81.10
2023-02-15T06:54:58.958Z,80.10
2023-02-15T06:55:59.253Z,81.10
2023-02-15T06:56:59.194Z,81.70
2023-02-15T06:57:59.533Z,77.50
2023-02-15T06:58:59.463Z,84.20
2023-02-15T06:59:59.601Z,78.50
2023-02-15T07:00:59.777Z,77.20
2023-02-15T07:01:59.931Z,76.80
2023-02-15T07:03:00.182Z,74.80
2023-02-15T07:04:00.239Z,73.00
2023-02-15T07:05:00.436Z,75.80
2023-02-15T07:06:00.821Z,74.50
2023-02-15T07:07:00.609Z,74.10
2023-02-15T07:08:00.742Z,74.00
2023-02-15T07:09:00.936Z,73.10
2023-02-15T07:10:00.979Z,73.50
2023-02-15T07:11:01.124Z,73.10
2023-02-15T07:12:01.291Z,75.60
2023-02-15T07:13:01.456Z,73.70
2023-02-15T07:14:01.621Z,72.40
2023-02-15T07:15:01.783Z,70.70
2023-02-15T07:16:02.203Z,70.50
2023-02-15T07:17:02.110Z,71.00
2023-02-15T07:18:02.240Z,70.20
2023-02-15T07:19:02.431Z,71.80
2023-02-15T07:20:02.469Z,70.50
2023-02-15T07:21:02.630Z,68.50
2023-02-15T07:22:02.777Z,72.90
2023-02-15T07:23:02.943Z,70.50
2023-02-15T07:24:03.113Z,67.10
2023-02-15T07:25:03.274Z,69.70
2023-02-15T07:26:03.540Z,67.50
2023-02-15T07:27:03.585Z,66.10
2023-02-15T07:28:03.741Z,67.50
2023-02-15T07:29:03.954Z,66.10
2023-02-15T07:30:04.052Z,67.40
2023-02-15T07:31:04.139Z,66.30
2023-02-15T07:32:04.229Z,66.80
2023-02-15T07:33:05.551Z,79.70
2023-02-15T07:34:04.368Z,66.60
2023-02-15T07:35:04.535Z,65.10
2023-02-15T07:36:04.860Z,64.90
2023-02-15T07:37:04.843Z,62.60
2023-02-15T07:38:04.988Z,61.70
2023-02-15T07:39:05.164Z,64.90
2023-02-15T07:40:05.213Z,64.50
2023-02-15T07:41:05.378Z,61.10
2023-02-15T07:42:05.528Z,62.80
2023-02-15T07:43:05.707Z,62.70
2023-02-15T07:44:05.869Z,62.20
2023-02-15T07:45:05.920Z,63.70
2023-02-15T07:46:06.082Z,66.20
2023-02-15T07:47:06.222Z,64.20
2023-02-15T07:48:06.394Z,67.90
2023-02-15T07:49:06.578Z,70.00
2023-02-15T07:50:06.643Z,69.20
2023-02-15T07:51:06.803Z,65.20
2023-02-15T07:52:06.945Z,65.80
2023-02-15T07:53:07.106Z,68.10
2023-02-15T07:54:07.287Z,63.80
2023-02-15T07:55:07.324Z,63.30
2023-02-15T07:56:07.475Z,73.80
2023-02-15T07:57:07.669Z,61.70
2023-02-15T07:58:07.702Z,65.20
2023-02-15T07:59:07.884Z,62.20
2023-02-15T08:00:07.926Z,62.00
2023-02-15T08:01:08.074Z,60.10
2023-02-15T08:02:08.243Z,70.40
2023-02-15T08:03:08.522Z,61.60
2023-02-15T08:04:08.576Z,58.10
2023-02-15T08:05:08.732Z,61.30
2023-02-15T08:06:08.886Z,58.80
2023-02-15T08:07:09.054Z,58.80
2023-02-15T08:08:09.191Z,59.30
2023-02-15T08:09:09.348Z,59.70
2023-02-15T08:10:09.483Z,61.40
2023-02-15T08:11:09.670Z,60.70
2023-02-15T08:12:09.689Z,60.80
2023-02-15T08:13:09.847Z,60.80
2023-02-15T08:14:09.992Z,64.60
2023-02-15T08:15:10.197Z,63.90
2023-02-15T08:16:12.965Z,59.90
2023-02-15T08:17:10.329Z,59.20
2023-02-15T08:18:10.471Z,59.80
2023-02-15T08:19:10.659Z,56.20
2023-02-15T08:20:10.780Z,56.20
2023-02-15T08:21:10.927Z,55.30
2023-02-15T08:22:11.065Z,56.80
2023-02-15T08:23:11.225Z,57.70
2023-02-15T08:24:11.384Z,53.70
2023-02-15T08:25:11.552Z,55.40
2023-02-15T08:26:11.747Z,55.80
2023-02-15T08:27:11.853Z,55.80
2023-02-15T08:28:12.001Z,55.60
2023-02-15T08:29:12.183Z,56.30
2023-02-15T08:30:12.241Z,56.00
2023-02-15T08:31:12.416Z,54.40
2023-02-15T08:32:12.488Z,55.60
2023-02-15T08:33:12.543Z,55.40
2023-02-15T08:34:12.613Z,59.90
2023-02-15T08:35:12.738Z,53.00
2023-02-15T08:36:12.895Z,54.60
2023-02-15T08:37:13.035Z,53.90
2023-02-15T08:38:13.171Z,52.90
2023-02-15T08:39:13.352Z,51.00
2023-02-15T08:40:13.351Z,53.90
2023-02-15T08:41:13.535Z,51.50
2023-02-15T08:42:13.612Z,52.10
2023-02-15T08:43:13.655Z,50.30
2023-02-15T08:44:13.781Z,55.50
2023-02-15T08:45:13.916Z,51.40
2023-02-15T08:46:14.130Z,49.80
2023-02-15T08:47:14.160Z,50.60
2023-02-15T08:48:14.297Z,52.40
2023-02-15T08:49:14.464Z,51.20
2023-02-15T08:50:14.482Z,49.10
2023-02-15T08:51:14.609Z,49.60
2023-02-15T08:52:14.809Z,54.60
2023-02-15T08:53:16.825Z,49.80
2023-02-15T08:54:15.041Z,50.80
2023-02-15T08:55:15.058Z,50.10
2023-02-15T08:56:15.202Z,50.40
2023-02-15T08:57:15.366Z,46.00
2023-02-15T08:58:15.402Z,46.70
2023-02-15T08:59:15.555Z,46.60
2023-02-15T09:00:15.548Z,46.50
2023-02-15T09:01:15.762Z,45.00
2023-02-15T09:02:15.783Z,45.60
2023-02-15T09:03:15.940Z,44.70
2023-02-15T09:04:16.081Z,43.80
2023-02-15T09:05:16.224Z,44.40
2023-02-15T09:06:16.408Z,46.10
2023-02-15T09:07:16.422Z,44.60
2023-02-15T09:08:16.610Z,43.50
2023-02-15T09:09:16.631Z,44.20
2023-02-15T09:10:16.748Z,42.50
2023-02-15T09:11:23.488Z,46.20
2023-02-15T09:12:17.023Z,44.50
2023-02-15T09:13:17.163Z,44.50
2023-02-15T09:14:17.350Z,43.50
2023-02-15T09:15:17.359Z,43.50
2023-02-15T09:16:17.505Z,38.90
2023-02-15T09:17:17.602Z,42.50
2023-02-15T09:18:17.809Z,48.40
2023-02-15T09:19:17.845Z,47.30
2023-02-15T09:20:17.858Z,48.10
2023-02-15T09:21:17.997Z,46.40
2023-02-15T09:22:18.164Z,55.50
2023-02-15T09:23:26.826Z,54.00
2023-02-15T09:24:19.361Z,40.90
2023-02-15T09:25:18.581Z,38.40
2023-02-15T09:26:18.604Z,36.30
2023-02-15T09:27:18.858Z,36.60
2023-02-15T09:28:18.965Z,36.60
2023-02-15T09:29:19.075Z,36.80
2023-02-15T09:30:19.211Z,37.70
2023-02-15T09:31:19.308Z,39.10
2023-02-15T09:32:19.362Z,44.90
2023-02-15T09:33:19.482Z,39.40
2023-02-15T09:34:19.578Z,45.00
2023-02-15T09:35:19.691Z,66.50
2023-02-15T09:36:19.778Z,43.40
2023-02-15T09:37:19.893Z,37.60
2023-02-15T09:38:19.990Z,37.40
2023-02-15T09:39:20.088Z,39.50
2023-02-15T09:40:20.196Z,44.80
2023-02-15T09:41:20.295Z,48.50
2023-02-15T09:42:20.394Z,44.40
2023-02-15T09:43:20.504Z,47.30
2023-02-15T09:44:20.567Z,40.00
2023-02-15T09:45:20.682Z,58.60
2023-02-15T09:46:20.816Z,43.10
2023-02-15T09:47:20.787Z,33.40
2023-02-15T09:48:20.873Z,49.60
2023-02-15T09:49:20.962Z,41.00
2023-02-15T09:50:21.051Z,38.80
2023-02-15T09:51:21.124Z,43.60
2023-02-15T09:52:21.187Z,36.50
2023-02-15T09:53:21.300Z,36.20
2023-02-15T09:54:21.354Z,31.70
2023-02-15T09:55:21.442Z,31.40
2023-02-15T09:56:21.508Z,32.90
2023-02-15T09:57:21.560Z,32.10
2023-02-15T09:58:21.611Z,32.70
2023-02-15T09:59:21.650Z,31.90
2023-02-15T10:00:21.700Z,41.10
2023-02-15T10:01:21.768Z,40.00
2023-02-15T10:02:21.789Z,47.90
2023-02-15T10:03:21.854Z,33.50
2023-02-15T10:04:21.933Z,36.00
2023-02-15T10:05:21.974Z,40.30
2023-02-15T10:06:21.985Z,36.10
2023-02-15T10:07:22.164Z,42.10
2023-02-15T10:08:22.185Z,35.10
2023-02-15T10:09:22.242Z,60.80
2023-02-15T10:10:22.354Z,47.60
2023-02-15T10:11:22.308Z,34.60
2023-02-15T10:12:22.405Z,32.40
2023-02-15T10:13:22.530Z,35.10
2023-02-15T10:14:22.614Z,40.20
2023-02-15T10:15:22.755Z,42.20
2023-02-15T10:16:22.746Z,35.00
2023-02-15T10:17:22.839Z,44.20
2023-02-15T10:18:22.911Z,34.30
2023-02-15T10:19:22.993Z,31.50
2023-02-15T10:20:23.097Z,35.30
2023-02-15T10:21:23.156Z,31.30
2023-02-15T10:22:23.236Z,32.00
2023-02-15T10:23:23.295Z,43.50
2023-02-15T10:24:23.361Z,35.00
2023-02-15T10:25:23.448Z,31.00
2023-02-15T10:26:23.536Z,36.90
2023-02-15T10:27:23.584Z,43.40
2023-02-15T10:28:23.660Z,33.70
2023-02-15T10:29:23.719Z,31.20
2023-02-15T10:30:23.832Z,32.60
2023-02-15T10:31:23.897Z,35.60
2023-02-15T10:32:23.893Z,35.50
2023-02-15T10:33:23.825Z,38.40
2023-02-15T10:34:23.872Z,46.40
2023-02-15T10:35:23.931Z,34.50
2023-02-15T10:36:23.969Z,30.20
2023-02-15T10:37:24.010Z,36.40
2023-02-15T10:38:24.039Z,29.40
2023-02-15T10:39:24.048Z,31.70
2023-02-15T10:40:24.075Z,29.10
2023-02-15T10:41:24.092Z,28.20
2023-02-15T10:42:24.099Z,27.50
2023-02-15T10:43:24.088Z,34.60
2023-02-15T10:44:24.103Z,31.40
2023-02-15T10:45:24.106Z,30.50
2023-02-15T10:46:24.171Z,29.00
2023-02-15T10:47:24.046Z,28.60
2023-02-15T10:48:24.052Z,27.70
2023-02-15T10:49:24.047Z,27.80
2023-02-15T10:50:24.028Z,28.30
2023-02-15T10:51:24.016Z,37.00
2023-02-15T10:52:24.544Z,27.40
2023-02-15T10:53:23.958Z,56.40
2023-02-15T10:54:23.952Z,34.70
2023-02-15T10:55:23.926Z,28.20
2023-02-15T10:56:23.925Z,28.30
2023-02-15T10:57:23.894Z,27.60
2023-02-15T10:58:23.890Z,27.40
2023-02-15T10:59:23.862Z,27.80
2023-02-15T11:00:23.856Z,26.90
2023-02-15T11:01:23.906Z,28.00
2023-02-15T11:02:23.799Z,27.80
2023-02-15T11:03:23.769Z,27.70
2023-02-15T11:04:23.747Z,27.30
2023-02-15T11:05:23.797Z,27.40
2023-02-15T11:06:23.643Z,27.50
2023-02-15T11:07:23.649Z,26.90
2023-02-15T11:08:23.625Z,27.00
2023-02-15T11:09:23.608Z,56.20
2023-02-15T11:10:23.585Z,34.00
2023-02-15T11:11:23.582Z,27.40
2023-02-15T11:12:23.578Z,27.10
2023-02-15T11:13:23.603Z,26.60
2023-02-15T11:14:23.455Z,26.30
2023-02-15T11:15:23.424Z,26.50
2023-02-15T11:16:23.441Z,27.10
2023-02-15T11:17:23.395Z,26.10
2023-02-15T11:18:23.401Z,26.40
2023-02-15T11:19:23.367Z,25.90
2023-02-15T11:20:23.335Z,26.40
2023-02-15T11:21:23.309Z,26.50
2023-02-15T11:22:23.289Z,26.50
2023-02-15T11:23:23.243Z,26.70
2023-02-15T11:24:23.393Z,27.30
2023-02-15T11:25:23.149Z,26.30
2023-02-15T11:26:23.115Z,26.00
2023-02-15T11:27:23.161Z,31.90
2023-02-15T11:28:23.075Z,25.80
2023-02-15T11:29:23.061Z,26.00
2023-02-15T11:30:23.154Z,25.90
2023-02-15T11:31:23.115Z,26.40
2023-02-15T11:32:22.999Z,26.10
2023-02-15T11:33:22.961Z,26.30
2023-02-15T11:34:22.937Z,26.10
2023-02-15T11:35:22.896Z,25.90
2023-02-15T11:36:23.016Z,26.80
2023-02-15T11:37:22.792Z,25.90
2023-02-15T11:38:22.755Z,26.10
2023-02-15T11:39:22.840Z,26.20
2023-02-15T11:40:22.707Z,26.50
2023-02-15T11:41:22.663Z,26.20
2023-02-15T11:42:22.642Z,25.70
2023-02-15T11:43:22.598Z,25.00
2023-02-15T11:44:22.584Z,25.20
2023-02-15T11:45:22.556Z,24.50
2023-02-15T11:46:22.568Z,23.90
2023-02-15T11:47:22.445Z,23.50
2023-02-15T11:48:22.403Z,23.20
2023-02-15T11:49:22.367Z,24.00
2023-02-15T11:50:22.340Z,24.60
2023-02-15T11:51:23.943Z,23.90
2023-02-15T11:52:22.211Z,23.80
2023-02-15T11:53:22.169Z,23.30
2023-02-15T11:54:22.136Z,23.80
2023-02-15T11:55:22.138Z,23.90
2023-02-15T11:56:22.094Z,23.90
2023-02-15T11:57:23.153Z,23.20
2023-02-15T11:58:22.084Z,22.10
2023-02-15T11:59:22.039Z,22.10
2023-02-15T12:00:21.998Z,21.90
2023-02-15T12:01:21.958Z,21.00
2023-02-15T12:02:22.020Z,21.40
2023-02-15T12:03:23.489Z,21.20
2023-02-15T12:04:21.928Z,21.80
2023-02-15T12:05:21.769Z,20.80
2023-02-15T12:06:21.743Z,22.10
2023-02-15T12:07:21.700Z,22.40
2023-02-15T12:08:21.666Z,23.20
2023-02-15T12:09:23.540Z,21.70
2023-02-15T12:10:21.564Z,22.70
2023-02-15T12:11:21.607Z,21.80
2023-02-15T12:12:21.482Z,21.80
2023-02-15T12:13:21.474Z,21.50
2023-02-15T12:14:21.468Z,22.20
2023-02-15T12:15:21.429Z,22.40
2023-02-15T12:16:21.477Z,21.70
2023-02-15T12:17:21.371Z,21.90
2023-02-15T12:18:21.413Z,22.80
2023-02-15T12:19:21.254Z,22.60
2023-02-15T12:20:21.232Z,22.00
2023-02-15T12:21:21.178Z,20.90
2023-02-15T12:22:21.138Z,21.10
2023-02-15T12:23:21.115Z,21.20
2023-02-15T12:24:21.095Z,20.60
2023-02-15T12:25:21.047Z,20.40
2023-02-15T12:26:21.026Z,20.50
2023-02-15T12:27:20.964Z,20.60
2023-02-15T12:28:20.928Z,21.20
2023-02-15T12:29:20.891Z,20.90
2023-02-15T12:30:20.908Z,21.30
2023-02-15T12:31:20.873Z,21.20
2023-02-15T12:32:20.773Z,21.10
2023-02-15T12:33:20.701Z,21.40
2023-02-15T12:34:20.691Z,20.70
2023-02-15T12:35:20.659Z,21.60
2023-02-15T12:36:20.621Z,20.50
2023-02-15T12:37:20.527Z,20.50
2023-02-15T12:38:20.519Z,20.50
2023-02-15T12:39:20.633Z,20.90
2023-02-15T12:40:20.536Z,21.00
2023-02-15T12:41:20.395Z,20.80
2023-02-15T12:42:20.402Z,21.00
2023-02-15T12:43:20.353Z,24.10
2023-02-15T12:44:20.345Z,21.90
2023-02-15T12:45:20.360Z,29.10
2023-02-15T12:46:20.281Z,23.70
2023-02-15T12:47:20.127Z,22.40
2023-02-15T12:48:20.111Z,21.10
2023-02-15T12:49:21.327Z,20.10
2023-02-15T12:50:20.061Z,20.60
2023-02-15T12:51:20.047Z,32.00
2023-02-15T12:52:20.034Z,23.20
2023-02-15T12:53:20.036Z,20.60
2023-02-15T12:54:23.316Z,19.70
2023-02-15T12:55:19.901Z,20.20
2023-02-15T12:56:23.928Z,23.70
2023-02-15T12:57:19.813Z,21.40
2023-02-15T12:58:19.783Z,25.10
2023-02-15T12:59:23.172Z,19.90
2023-02-15T13:00:19.645Z,19.60
2023-02-15T13:01:19.632Z,21.30
2023-02-15T13:02:19.719Z,23.30
2023-02-15T13:03:19.588Z,19.10
2023-02-15T13:04:19.546Z,20.10
2023-02-15T13:05:19.546Z,23.00
2023-02-15T13:06:19.505Z,33.60
2023-02-15T13:07:19.437Z,30.20
2023-02-15T13:08:19.428Z,21.80
2023-02-15T13:09:19.392Z,37.00
2023-02-15T13:10:19.357Z,20.60
2023-02-15T13:11:19.323Z,60.60
2023-02-15T13:12:19.311Z,29.80
2023-02-15T13:13:19.281Z,19.70
2023-02-15T13:14:19.377Z,19.40
2023-02-15T13:15:19.224Z,22.50
2023-02-15T13:16:19.270Z,23.70
2023-02-15T13:17:19.142Z,19.10
2023-02-15T13:18:18.991Z,19.40
2023-02-15T13:19:18.955Z,19.80
2023-02-15T13:20:18.962Z,19.30
2023-02-15T13:21:18.910Z,19.10
2023-02-15T13:22:18.872Z,18.40
2023-02-15T13:23:18.844Z,18.80
2023-02-15T13:24:18.906Z,18.80
2023-02-15T13:25:18.745Z,19.20
2023-02-15T13:26:18.732Z,20.30
2023-02-15T13:27:18.714Z,19.40
2023-02-15T13:28:18.702Z,20.60
2023-02-15T13:29:18.686Z,24.00
2023-02-15T13:30:18.722Z,19.30
2023-02-15T13:31:18.838Z,18.80
2023-02-15T13:32:18.719Z,18.70
2023-02-15T13:33:18.902Z,18.10
2023-02-15T13:34:18.657Z,19.70
2023-02-15T13:35:18.680Z,19.70
2023-02-15T13:36:18.684Z,18.80
2023-02-15T13:37:18.663Z,18.40
2023-02-15T13:38:18.649Z,18.20
2023-02-15T13:39:18.645Z,19.10
2023-02-15T13:40:18.665Z,20.10
2023-02-15T13:41:18.642Z,18.60
2023-02-15T13:42:18.636Z,18.00
2023-02-15T13:43:18.614Z,19.10
2023-02-15T13:44:18.604Z,18.60
2023-02-15T13:45:18.591Z,17.70
2023-02-15T13:46:18.660Z,17.20
2023-02-15T13:47:18.544Z,17.30
2023-02-15T13:48:18.534Z,17.90
2023-02-15T13:49:18.525Z,16.70
2023-02-15T13:50:18.513Z,17.30
2023-02-15T13:51:18.492Z,17.40
2023-02-15T13:52:18.482Z,17.40
2023-02-15T13:53:18.466Z,17.30
2023-02-15T13:54:18.458Z,18.20
2023-02-15T13:55:18.519Z,17.10
2023-02-15T13:56:18.363Z,17.20
2023-02-15T13:57:18.365Z,17.10
2023-02-15T13:58:18.381Z,16.40
2023-02-15T13:59:18.352Z,16.00
2023-02-15T14:00:18.344Z,16.70
2023-02-15T14:01:18.381Z,17.20
2023-02-15T14:02:18.275Z,16.80
2023-02-15T14:03:18.277Z,16.40
2023-02-15T14:04:18.359Z,16.70
2023-02-15T14:05:18.238Z,16.40
2023-02-15T14:06:18.224Z,16.00
2023-02-15T14:07:18.206Z,16.00
2023-02-15T14:08:18.610Z,16.50
2023-02-15T14:09:18.183Z,17.30
2023-02-15T14:10:18.229Z,17.40
2023-02-15T14:11:18.139Z,18.30
2023-02-15T14:12:18.120Z,16.50
2023-02-15T14:13:18.106Z,16.90
2023-02-15T14:14:18.142Z,16.40
2023-02-15T14:15:18.144Z,16.70
2023-02-15T14:16:18.180Z,16.30
2023-02-15T14:17:18.181Z,16.20
2023-02-15T14:18:18.058Z,16.80
2023-02-15T14:19:18.151Z,17.30
2023-02-15T14:20:18.091Z,16.50
2023-02-15T14:21:18.089Z,15.90
2023-02-15T14:22:18.089Z,15.10
2023-02-15T14:23:18.084Z,16.60
2023-02-15T14:24:18.116Z,16.50
2023-02-15T14:25:18.178Z,17.10
2023-02-15T14:26:18.097Z,16.20
2023-02-15T14:27:18.103Z,16.90
2023-02-15T14:28:18.110Z,16.50
2023-02-15T14:29:18.145Z,16.30
2023-02-15T14:30:18.210Z,16.70
2023-02-15T14:31:18.261Z,16.50
2023-02-15T14:32:18.278Z,16.30
2023-02-15T14:33:18.112Z,16.40
2023-02-15T14:34:18.116Z,17.00
2023-02-15T14:35:18.133Z,15.70
2023-02-15T14:36:18.156Z,16.20
2023-02-15T14:37:18.147Z,16.70
2023-02-15T14:38:18.171Z,16.10
2023-02-15T14:39:18.186Z,16.70
2023-02-15T14:40:18.196Z,16.60
2023-02-15T14:41:18.209Z,16.30
2023-02-15T14:42:18.228Z,16.60
2023-02-15T14:43:18.245Z,17.00
2023-02-15T14:44:18.263Z,17.00
2023-02-15T14:45:18.290Z,16.80
2023-02-15T14:46:18.325Z,16.60
2023-02-15T14:47:18.336Z,17.60
2023-02-15T14:48:25.334Z,16.40
2023-02-15T14:49:18.345Z,16.80
2023-02-15T14:50:18.376Z,16.70
2023-02-15T14:51:18.405Z,17.10
2023-02-15T14:52:18.423Z,16.30
2023-02-15T14:53:18.444Z,16.80
2023-02-15T14:54:18.504Z,16.70
2023-02-15T14:55:18.529Z,16.90
2023-02-15T14:56:18.563Z,17.10
2023-02-15T14:57:18.576Z,16.00
2023-02-15T14:58:18.595Z,16.70
2023-02-15T14:59:18.646Z,16.20
2023-02-15T15:00:18.691Z,16.20
2023-02-15T15:01:18.725Z,16.20
2023-02-15T15:02:18.711Z,16.60
2023-02-15T15:03:18.740Z,16.10
2023-02-15T15:04:18.761Z,15.60
2023-02-15T15:05:18.812Z,16.00
2023-02-15T15:06:18.829Z,16.20
2023-02-15T15:07:18.850Z,16.00
2023-02-15T15:08:18.869Z,16.20
2023-02-15T15:09:18.889Z,16.10
2023-02-15T15:10:18.930Z,15.30
2023-02-15T15:11:18.938Z,16.10
2023-02-15T15:12:18.952Z,15.90
2023-02-15T15:13:18.978Z,15.60
2023-02-15T15:14:18.990Z,15.40
2023-02-15T15:15:19.027Z,15.60
2023-02-15T15:16:19.080Z,15.50
2023-02-15T15:17:19.124Z,15.10
2023-02-15T15:18:19.144Z,14.70
2023-02-15T15:19:19.175Z,15.30
2023-02-15T15:20:19.216Z,15.00
2023-02-15T15:21:19.262Z,15.10
2023-02-15T15:22:19.278Z,14.90
2023-02-15T15:23:19.349Z,15.00
2023-02-15T15:24:19.350Z,15.90
2023-02-15T15:25:19.411Z,16.10
2023-02-15T15:26:19.407Z,15.00
2023-02-15T15:27:19.447Z,14.40
2023-02-15T15:28:19.462Z,14.60
2023-02-15T15:29:19.488Z,14.50
2023-02-15T15:30:19.631Z,13.80
2023-02-15T15:31:19.625Z,14.00
2023-02-15T15:32:19.571Z,14.20
2023-02-15T15:33:19.559Z,13.60
2023-02-15T15:34:19.576Z,13.80
2023-02-15T15:35:19.632Z,13.20
2023-02-15T15:36:19.652Z,12.00
2023-02-15T15:37:19.676Z,12.20
2023-02-15T15:38:19.692Z,12.60
2023-02-15T15:39:19.742Z,11.80
2023-02-15T15:40:19.760Z,11.30
2023-02-15T15:41:19.789Z,11.90
2023-02-15T15:42:19.814Z,10.50
2023-02-15T15:43:19.833Z,11.00
2023-02-15T15:44:19.890Z,11.00
2023-02-15T15:45:19.927Z,10.30
2023-02-15T15:46:19.973Z,10.60
2023-02-15T15:47:19.996Z,10.70
2023-02-15T15:48:20.036Z,10.20
2023-02-15T15:49:20.057Z,10.30
2023-02-15T15:50:20.119Z,9.80
2023-02-15T15:51:20.147Z,10.10
2023-02-15T15:52:20.178Z,10.00
2023-02-15T15:53:20.210Z,9.80
2023-02-15T15:54:20.233Z,9.90
2023-02-15T15:55:20.298Z,9.30
2023-02-15T15:56:20.329Z,9.60
2023-02-15T15:57:20.374Z,9.50
2023-02-15T15:58:20.518Z,9.80
2023-02-15T15:59:20.470Z,9.90
2023-02-15T16:00:20.521Z,9.70
2023-02-15T16:01:20.593Z,9.90
2023-02-15T16:02:20.646Z,9.60
2023-02-15T16:03:20.683Z,10.00
2023-02-15T16:04:20.713Z,9.70
2023-02-15T16:05:20.777Z,9.90
2023-02-15T16:06:20.768Z,9.60
2023-02-15T16:07:20.824Z,9.70
2023-02-15T16:08:20.873Z,9.60
2023-02-15T16:09:20.932Z,10.20
2023-02-15T16:10:21.014Z,10.20
2023-02-15T16:11:21.068Z,9.90
2023-02-15T16:12:23.651Z,10.00
2023-02-15T16:13:21.146Z,9.70
2023-02-15T16:14:21.193Z,9.90
2023-02-15T16:15:21.271Z,10.10
2023-02-15T16:16:21.345Z,10.30
2023-02-15T16:17:21.423Z,10.10
2023-02-15T16:18:21.481Z,10.00
2023-02-15T16:19:21.543Z,10.00
2023-02-15T16:20:21.604Z,10.20
2023-02-15T16:21:21.698Z,12.60
2023-02-15T16:22:21.761Z,10.40
2023-02-15T16:23:21.829Z,10.10
2023-02-15T16:24:21.885Z,9.70
2023-02-15T16:25:22.008Z,10.20
2023-02-15T16:26:22.091Z,10.80
2023-02-15T16:27:22.147Z,10.60
2023-02-15T16:28:22.201Z,10.90
2023-02-15T16:29:22.262Z,10.80
2023-02-15T16:30:22.416Z,11.00
2023-02-15T16:31:22.470Z,10.80
2023-02-15T16:32:22.436Z,10.70
2023-02-15T16:33:22.510Z,10.60
2023-02-15T16:34:22.565Z,11.00
2023-02-15T16:35:22.681Z,10.60
2023-02-15T16:36:22.743Z,10.90
2023-02-15T16:37:22.839Z,11.10
2023-02-15T16:38:22.891Z,11.50
2023-02-15T16:39:23.002Z,10.90
2023-02-15T16:40:23.079Z,11.00
2023-02-15T16:41:23.148Z,11.00
2023-02-15T16:42:23.218Z,11.20
2023-02-15T16:43:23.293Z,11.40
2023-02-15T16:44:23.444Z,10.80
2023-02-15T16:45:23.422Z,11.90
2023-02-15T16:46:23.505Z,11.80
2023-02-15T16:47:23.542Z,12.30
2023-02-15T16:48:23.609Z,11.70
2023-02-15T16:49:23.736Z,11.80
2023-02-15T16:50:23.734Z,11.80
2023-02-15T16:51:23.827Z,11.50
2023-02-15T16:52:23.975Z,11.20
2023-02-15T16:53:23.954Z,11.10
2023-02-15T16:54:24.029Z,10.90
2023-02-15T16:55:24.126Z,11.10
2023-02-15T16:56:24.189Z,15.20
2023-02-15T16:57:24.316Z,12.80
2023-02-15T16:58:24.381Z,19.60
2023-02-15T16:59:24.485Z,15.30
2023-02-15T17:00:24.570Z,12.50
2023-02-15T17:01:24.766Z,12.70
2023-02-15T17:02:49.282Z,12.50
2023-02-15T17:03:25.759Z,11.20
2023-02-15T17:04:24.725Z,12.20
2023-02-15T17:05:24.893Z,12.30
2023-02-15T17:06:24.848Z,12.40
2023-02-15T17:07:24.942Z,12.00
2023-02-15T17:08:25.028Z,11.10
2023-02-15T17:09:25.116Z,11.60
2023-02-15T17:10:25.203Z,12.00
2023-02-15T17:11:25.274Z,11.70
2023-02-15T17:12:25.344Z,11.20
2023-02-15T17:13:25.422Z,12.90
2023-02-15T17:14:25.496Z,17.00
2023-02-15T17:15:25.605Z,31.90
2023-02-15T17:16:25.749Z,34.50
2023-02-15T17:17:25.747Z,20.90
2023-02-15T17:18:25.839Z,18.80
2023-02-15T17:19:25.924Z,24.80
2023-02-15T17:20:26.022Z,35.60
2023-02-15T17:21:26.129Z,28.10
2023-02-15T17:22:26.238Z,20.90
2023-02-15T17:23:26.313Z,23.40
2023-02-15T17:24:26.429Z,156.60
2023-02-15T17:25:26.570Z,144.10
2023-02-15T17:26:26.562Z,110.50
2023-02-15T17:27:26.686Z,83.50
2023-02-15T17:28:26.826Z,41.40
2023-02-15T17:29:26.783Z,45.50
2023-02-15T17:30:26.944Z,68.50
2023-02-15T17:31:27.117Z,56.30
2023-02-15T17:32:27.098Z,42.40
2023-02-15T17:33:27.052Z,48.50
2023-02-15T17:34:27.139Z,35.20
2023-02-15T17:35:27.286Z,30.60
2023-02-15T17:36:27.263Z,29.90
2023-02-15T17:37:27.355Z,25.50
2023-02-15T17:38:27.442Z,25.20
2023-02-15T17:39:27.541Z,23.40
2023-02-15T17:40:27.635Z,31.70
2023-02-15T17:41:27.732Z,30.00
2023-02-15T17:42:27.823Z,18.90
2023-02-15T17:43:27.915Z,19.20
2023-02-15T17:44:28.012Z,30.20
2023-02-15T17:45:28.155Z,30.40
2023-02-15T17:46:28.215Z,28.90
2023-02-15T17:47:28.315Z,29.10
2023-02-15T17:48:28.435Z,28.20
2023-02-15T17:49:28.532Z,32.80
2023-02-15T17:50:28.630Z,39.60
2023-02-15T17:51:28.741Z,21.60
2023-02-15T17:52:28.821Z,16.70
2023-02-15T17:53:28.938Z,14.30
2023-02-15T17:54:29.064Z,24.10
2023-02-15T17:55:29.161Z,22.20
2023-02-15T17:56:29.276Z,26.90
2023-02-15T17:57:29.373Z,36.20
2023-02-15T17:58:29.465Z,32.20
2023-02-15T17:59:29.566Z,37.50
2023-02-15T18:00:29.679Z,41.70
2023-02-15T18:01:29.712Z,24.60
2023-02-15T18:02:29.814Z,26.80
2023-02-15T18:03:29.915Z,25.60
2023-02-15T18:04:30.086Z,29.40
2023-02-15T18:05:30.096Z,57.60
2023-02-15T18:06:30.188Z,39.30
2023-02-15T18:07:30.284Z,21.80
2023-02-15T18:08:30.374Z,17.90
2023-02-15T18:09:30.482Z,20.20
2023-02-15T18:10:30.590Z,22.10
2023-02-15T18:11:30.696Z,18.90
2023-02-15T18:12:30.797Z,20.60
2023-02-15T18:13:30.929Z,21.50
2023-02-15T18:14:31.035Z,20.10
2023-02-15T18:15:31.188Z,23.80
2023-02-15T18:16:31.276Z,22.80
2023-02-15T18:17:31.284Z,22.20
2023-02-15T18:18:31.403Z,22.80
2023-02-15T18:19:31.541Z,33.10
2023-02-15T18:20:31.659Z,30.80
2023-02-15T18:21:31.776Z,34.30
2023-02-15T18:22:31.889Z,42.00
2023-02-15T18:23:32.006Z,43.50
2023-02-15T18:24:32.102Z,34.30
2023-02-15T18:25:32.224Z,30.90
2023-02-15T18:26:32.323Z,27.30
2023-02-15T18:27:32.423Z,22.50
2023-02-15T18:28:32.553Z,24.00
2023-02-15T18:29:32.645Z,27.10
2023-02-15T18:30:32.889Z,21.90
2023-02-15T18:31:32.942Z,24.50
2023-02-15T18:32:32.969Z,24.40
2023-02-15T18:33:33.101Z,22.00
2023-02-15T18:34:33.205Z,24.50
2023-02-15T18:35:33.364Z,26.00
2023-02-15T18:36:33.394Z,19.70
2023-02-15T18:37:33.448Z,23.50